Aérodrome :
LOGIN :

S'inscrire | Disclaimer

   EN    FR    IT 

 










Légende :    VFR   VFR Marginal   IFR   IFR Intensif   IFR Très Intensif
Visi : 
Plafond : 
>= 8 km
>= 3000ft
5 à 8 km
1000 à 3000 ft
1500m à 5 km
500 à 1000 ft
800 à 1500m
200 à 500 ft
< 800m
< 200 ft
Symboles :   Orages  Brouillard  Fortes neiges  Fortes précipitations  Vent > 20 kt
SIGMETs :   Divers  Orages  Givrage  Turbulence  Onde Orograph.  Cendres Volcan.






- Altitude de l'aérodrome : 51 ft
- Code IATA : GWT


EDXW - Westerland-Sylt Island

DERNIER METAR :
  • 131950Z 21013KT 9000 FEW015 15/15 Q1001

METARs EXPIRÉS :
  • 131920Z 22015KT 9000 FEW005 BKN060 15/15 Q1002
  • 131850Z 20016KT 9999 FEW008 BKN055 15/15 Q1001
  • 131820Z 20012KT 6000 -RA SCT004 BKN039 16/16 Q1001
  • 131750Z 20017KT 7000 -RA SCT007 BKN011TCU 15/15 Q1002 RERA
  • 131720Z 18012KT 3000 RADZ SCT003 BKN006 15/15 Q1002 RERA

TAF AMD TAF EDXW
Valide du 13 à 18h jusqu'au 13 à 21h UTC


131830Z 1318/1321 20013KT 3500 DZ BR BKN003
BECMG 1318/1319 22015G25KT 9999 NSW SCT007 BKN025
TEMPO 1319/1321 23020G35KT



MET'MAP, la Météo Aéronautique d'un coup d'oeil ! - Copyright ORBIFLY Décembre 2007 - Disclaimer

ORBIFLY MET'MAP TEAM :

Programmation & Développement : Alexandra Zaïnal
Conception & Développement : Baudouin d'Aumeries
Co-Programmation & Développement : Marc-Olivier Méhu
Soutien technique & logistique : Manuel Goepfert

Contact : metmap@orbifly.com




SOURCES & CREDITS :

   NOAA